createdAt,value
2017-07-30T00:01:10.299Z,67.90
2017-07-30T00:03:39.991Z,67.80
2017-07-30T00:06:08.882Z,67.80
2017-07-30T00:08:37.569Z,67.90
2017-07-30T00:11:06.453Z,68.10
2017-07-30T00:13:35.346Z,68.10
2017-07-30T00:16:04.444Z,68.10
2017-07-30T00:18:34.155Z,68.10
2017-07-30T00:21:03.046Z,68.20
2017-07-30T00:23:32.141Z,68.20
2017-07-30T00:26:01.033Z,68.50
2017-07-30T00:28:29.920Z,68.40
2017-07-30T00:30:58.809Z,68.50
2017-07-30T00:33:27.907Z,68.40
2017-07-30T00:35:56.998Z,68.50
2017-07-30T00:38:25.891Z,68.60
2017-07-30T00:40:54.789Z,68.90
2017-07-30T00:43:23.670Z,68.90
2017-07-30T00:45:52.561Z,68.80
2017-07-30T00:48:21.453Z,68.80
2017-07-30T00:50:50.345Z,68.70
2017-07-30T00:53:19.234Z,68.70
2017-07-30T00:55:48.715Z,68.70
2017-07-30T00:58:17.812Z,68.80
2017-07-30T01:00:46.723Z,69.00
2017-07-30T01:03:15.632Z,68.90
2017-07-30T01:05:44.512Z,69.00
2017-07-30T01:08:13.405Z,68.70
2017-07-30T01:10:42.901Z,68.90
2017-07-30T01:13:11.792Z,69.10
2017-07-30T01:15:40.683Z,69.20
2017-07-30T01:18:09.588Z,69.30
2017-07-30T01:20:38.874Z,69.30
2017-07-30T01:23:07.767Z,69.20
2017-07-30T01:25:38.300Z,69.70
2017-07-30T01:28:07.183Z,69.60
2017-07-30T01:30:36.491Z,69.60
2017-07-30T01:33:05.379Z,69.50
2017-07-30T01:35:34.269Z,69.60
2017-07-30T01:38:03.569Z,69.60
2017-07-30T01:40:32.461Z,69.50
2017-07-30T01:43:01.357Z,69.50
2017-07-30T01:45:30.235Z,69.80
2017-07-30T01:47:59.127Z,69.80
2017-07-30T01:50:29.042Z,69.90
2017-07-30T01:52:58.760Z,70.10
2017-07-30T01:55:28.240Z,70.20
2017-07-30T01:57:57.977Z,70.40
2017-07-30T02:00:27.062Z,70.30
2017-07-30T02:02:55.958Z,70.40
2017-07-30T02:05:24.842Z,70.20
2017-07-30T02:07:53.733Z,70.10
2017-07-30T02:10:23.245Z,70.10
2017-07-30T02:12:53.152Z,70.30
2017-07-30T02:15:22.234Z,70.50
2017-07-30T02:17:51.139Z,70.20
2017-07-30T02:20:20.030Z,70.30
2017-07-30T02:22:48.920Z,70.40
2017-07-30T02:25:17.816Z,70.40
2017-07-30T02:27:46.699Z,70.50
2017-07-30T02:30:16.001Z,70.40
2017-07-30T02:32:45.094Z,70.30
2017-07-30T02:35:13.999Z,70.30
2017-07-30T02:37:42.885Z,71.10
2017-07-30T02:40:12.800Z,70.50
2017-07-30T02:42:41.684Z,70.30
2017-07-30T02:45:10.586Z,70.40
2017-07-30T02:47:39.637Z,70.40
2017-07-30T02:50:09.473Z,70.40
2017-07-30T02:52:38.269Z,70.50
2017-07-30T02:55:07.160Z,70.30
2017-07-30T02:57:36.053Z,70.60
2017-07-30T03:00:05.109Z,70.60
2017-07-30T03:02:34.038Z,70.60
2017-07-30T03:05:02.928Z,70.40
2017-07-30T03:07:31.907Z,70.60
2017-07-30T03:10:00.921Z,70.60
2017-07-30T03:12:29.804Z,70.60
2017-07-30T03:14:58.594Z,70.70
2017-07-30T03:17:29.120Z,70.50
2017-07-30T03:19:58.173Z,70.50
2017-07-30T03:22:27.103Z,70.70
2017-07-30T03:24:56.816Z,70.80
2017-07-30T03:27:25.707Z,70.90
2017-07-30T03:29:54.596Z,70.80
2017-07-30T03:32:23.487Z,70.70
2017-07-30T03:34:52.272Z,70.90
2017-07-30T03:37:20.961Z,70.90
2017-07-30T03:39:50.059Z,70.80
2017-07-30T03:42:18.746Z,70.90
2017-07-30T03:44:47.631Z,70.90
2017-07-30T03:47:16.520Z,71.00
2017-07-30T03:49:45.620Z,71.00
2017-07-30T03:52:14.508Z,71.00
2017-07-30T03:54:43.401Z,71.10
2017-07-30T03:57:12.290Z,71.00
2017-07-30T03:59:41.192Z,71.00
2017-07-30T04:02:10.072Z,71.00
2017-07-30T04:04:44.899Z,71.10
2017-07-30T04:07:13.789Z,71.20
2017-07-30T04:09:42.685Z,71.30
2017-07-30T04:12:12.189Z,71.20
2017-07-30T04:14:41.074Z,71.00
2017-07-30T04:17:09.969Z,71.10
2017-07-30T04:19:38.870Z,71.30
2017-07-30T04:22:07.748Z,71.50
2017-07-30T04:24:36.640Z,71.30
2017-07-30T04:27:06.741Z,71.50
2017-07-30T04:29:35.447Z,71.50
2017-07-30T04:32:04.503Z,71.50
2017-07-30T04:34:33.434Z,71.60
2017-07-30T04:37:02.320Z,71.50
2017-07-30T04:39:31.220Z,71.40
2017-07-30T04:42:00.099Z,71.30
2017-07-30T04:44:28.787Z,71.40
2017-07-30T04:46:57.474Z,71.50
2017-07-30T04:49:26.364Z,71.60
2017-07-30T04:51:55.254Z,71.50
2017-07-30T04:54:24.147Z,71.40
2017-07-30T04:56:52.836Z,71.70
2017-07-30T04:59:21.724Z,71.60
2017-07-30T05:01:50.553Z,71.60
2017-07-30T05:04:19.294Z,71.70
2017-07-30T05:06:48.187Z,71.90
2017-07-30T05:09:17.079Z,71.90
2017-07-30T05:11:45.967Z,71.80
2017-07-30T05:14:14.857Z,72.00
2017-07-30T05:16:43.755Z,72.20
2017-07-30T05:19:12.647Z,72.20
2017-07-30T05:21:42.147Z,72.00
2017-07-30T05:24:10.835Z,73.10
2017-07-30T05:26:39.719Z,72.30
2017-07-30T05:29:08.610Z,72.60
2017-07-30T05:31:37.640Z,72.90
2017-07-30T05:34:06.394Z,72.80
2017-07-30T05:36:35.487Z,73.10
2017-07-30T05:39:04.381Z,72.80
2017-07-30T05:41:33.836Z,73.10
2017-07-30T05:44:03.785Z,73.40
2017-07-30T05:46:32.687Z,73.00
2017-07-30T05:49:02.008Z,73.30
2017-07-30T05:51:30.881Z,73.30
2017-07-30T05:53:59.768Z,73.90
2017-07-30T05:56:28.660Z,74.00
2017-07-30T05:58:57.987Z,74.10
2017-07-30T06:01:29.661Z,74.10
2017-07-30T06:04:00.121Z,74.10
2017-07-30T06:06:29.697Z,74.60
2017-07-30T06:08:58.850Z,74.90
2017-07-30T06:11:29.296Z,75.00
2017-07-30T06:13:59.681Z,74.80
2017-07-30T06:16:29.933Z,75.40
2017-07-30T06:19:00.522Z,75.30
2017-07-30T06:21:31.539Z,75.50
2017-07-30T06:24:01.340Z,75.90
2017-07-30T06:26:31.661Z,75.70
2017-07-30T06:29:02.088Z,76.60
2017-07-30T06:31:32.934Z,76.40
2017-07-30T06:34:04.065Z,76.60
2017-07-30T06:36:35.461Z,77.20
2017-07-30T06:39:06.064Z,78.30
2017-07-30T06:41:36.765Z,77.90
2017-07-30T06:44:07.454Z,78.60
2017-07-30T06:46:37.413Z,79.40
2017-07-30T06:49:08.223Z,79.20
2017-07-30T06:51:38.338Z,79.60
2017-07-30T06:54:09.659Z,79.10
2017-07-30T06:56:39.451Z,79.00
2017-07-30T06:59:10.309Z,79.80
2017-07-30T07:02:42.480Z,82.60
2017-07-30T07:05:12.316Z,80.60
2017-07-30T07:07:41.540Z,82.50
2017-07-30T07:10:12.650Z,83.20
2017-07-30T07:12:42.982Z,83.30
2017-07-30T07:15:13.007Z,82.80
2017-07-30T07:17:42.593Z,82.20
2017-07-30T07:20:12.232Z,81.80
2017-07-30T07:22:41.391Z,81.50
2017-07-30T07:25:11.781Z,81.50
2017-07-30T07:27:41.864Z,80.80
2017-07-30T07:30:11.887Z,80.70
2017-07-30T07:32:42.526Z,81.10
2017-07-30T07:35:13.091Z,80.90
2017-07-30T07:37:43.565Z,79.90
2017-07-30T07:40:13.944Z,80.00
2017-07-30T07:42:44.141Z,79.00
2017-07-30T07:45:14.816Z,80.30
2017-07-30T07:47:46.326Z,79.80
2017-07-30T07:50:16.671Z,80.00
2017-07-30T07:52:47.849Z,79.80
2017-07-30T07:55:19.180Z,80.70
2017-07-30T07:57:49.185Z,79.70
2017-07-30T08:00:20.144Z,79.00
2017-07-30T08:02:50.461Z,78.80
2017-07-30T08:05:19.915Z,80.10
2017-07-30T08:07:49.425Z,79.50
2017-07-30T08:10:19.331Z,79.70
2017-07-30T08:12:48.422Z,80.50
2017-07-30T08:15:17.516Z,80.60
2017-07-30T08:17:46.617Z,80.40
2017-07-30T08:20:15.689Z,81.30
2017-07-30T08:22:44.588Z,81.60
2017-07-30T08:25:14.144Z,81.70
2017-07-30T08:27:43.864Z,80.70
2017-07-30T08:30:13.534Z,81.10
2017-07-30T08:32:44.067Z,81.10
2017-07-30T08:35:14.392Z,81.60
2017-07-30T08:37:47.181Z,81.80
2017-07-30T08:40:18.399Z,81.60
2017-07-30T08:42:50.484Z,82.30
2017-07-30T08:45:21.833Z,82.30
2017-07-30T08:47:51.975Z,82.30
2017-07-30T08:50:22.121Z,81.80
2017-07-30T08:52:52.270Z,82.10
2017-07-30T08:55:22.750Z,82.40
2017-07-30T08:57:53.169Z,80.60
2017-07-30T09:00:23.433Z,81.20
2017-07-30T09:02:54.221Z,82.40
2017-07-30T09:05:24.279Z,82.20
2017-07-30T09:07:54.836Z,81.20
2017-07-30T09:10:25.972Z,80.30
2017-07-30T09:12:56.497Z,83.60
2017-07-30T09:15:28.002Z,83.40
2017-07-30T09:17:58.512Z,83.40
2017-07-30T09:20:29.095Z,84.80
2017-07-30T09:22:59.633Z,84.40
2017-07-30T09:25:30.399Z,85.50
2017-07-30T09:28:01.969Z,85.80
2017-07-30T09:30:32.530Z,85.70
2017-07-30T09:33:03.011Z,85.40
2017-07-30T09:35:33.357Z,86.40
2017-07-30T09:38:04.725Z,84.60
2017-07-30T09:40:36.228Z,85.20
2017-07-30T09:43:06.226Z,85.20
2017-07-30T09:45:36.333Z,84.80
2017-07-30T09:48:06.144Z,84.70
2017-07-30T09:50:39.725Z,84.40
2017-07-30T09:53:11.463Z,84.20
2017-07-30T09:55:40.846Z,83.50
2017-07-30T09:58:10.530Z,83.20
2017-07-30T10:00:40.375Z,83.70
2017-07-30T10:03:10.479Z,82.40
2017-07-30T10:05:40.379Z,81.70
2017-07-30T10:08:12.921Z,80.90
2017-07-30T10:10:43.897Z,81.50
2017-07-30T10:13:14.515Z,81.70
2017-07-30T10:15:45.185Z,80.90
2017-07-30T10:18:15.421Z,80.80
2017-07-30T10:20:45.580Z,80.30
2017-07-30T10:23:16.758Z,79.70
2017-07-30T10:25:46.627Z,79.90
2017-07-30T10:28:16.576Z,78.20
2017-07-30T10:30:46.378Z,76.30
2017-07-30T10:33:16.591Z,76.80
2017-07-30T10:35:47.694Z,76.40
2017-07-30T10:38:18.014Z,76.20
2017-07-30T10:40:50.228Z,75.00
2017-07-30T10:43:19.955Z,74.90
2017-07-30T10:45:50.104Z,75.10
2017-07-30T10:48:21.250Z,75.10
2017-07-30T10:50:50.318Z,75.30
2017-07-30T10:53:19.955Z,75.50
2017-07-30T10:55:49.120Z,74.90
2017-07-30T10:58:19.427Z,73.60
2017-07-30T11:00:50.114Z,73.60
2017-07-30T11:03:20.997Z,73.50
2017-07-30T11:05:52.092Z,70.90
2017-07-30T11:08:23.594Z,71.10
2017-07-30T11:10:53.649Z,71.50
2017-07-30T11:13:23.986Z,71.70
2017-07-30T11:15:53.737Z,71.50
2017-07-30T11:18:24.516Z,72.20
2017-07-30T11:20:54.472Z,72.10
2017-07-30T11:23:24.101Z,72.10
2017-07-30T11:25:53.539Z,72.50
2017-07-30T11:28:22.721Z,72.80
2017-07-30T11:30:52.225Z,73.40
2017-07-30T11:33:23.119Z,72.50
2017-07-30T11:35:54.751Z,71.70
2017-07-30T11:38:25.300Z,71.20
2017-07-30T11:40:55.349Z,71.40
2017-07-30T11:43:25.390Z,72.00
2017-07-30T11:45:56.056Z,72.20
2017-07-30T11:48:26.353Z,72.90
2017-07-30T11:50:57.514Z,72.90
2017-07-30T11:53:28.376Z,72.90
2017-07-30T11:55:59.468Z,73.30
2017-07-30T11:58:29.960Z,72.60
2017-07-30T12:01:00.092Z,72.00
2017-07-30T12:03:30.622Z,72.40
2017-07-30T12:06:01.564Z,72.10
2017-07-30T12:08:32.202Z,72.40
2017-07-30T12:11:04.036Z,71.90
2017-07-30T12:13:35.143Z,71.90
2017-07-30T12:16:05.995Z,71.80
2017-07-30T12:18:37.191Z,72.00
2017-07-30T12:21:08.145Z,71.80
2017-07-30T12:23:39.238Z,71.30
2017-07-30T12:26:10.677Z,68.70
2017-07-30T12:28:42.208Z,69.50
2017-07-30T12:31:13.608Z,69.80
2017-07-30T12:33:44.768Z,70.50
2017-07-30T12:36:15.568Z,70.50
2017-07-30T12:38:46.322Z,71.00
2017-07-30T12:41:19.772Z,71.40
2017-07-30T12:43:50.391Z,71.10
2017-07-30T12:46:20.728Z,71.00
2017-07-30T12:48:51.059Z,71.00
2017-07-30T12:51:21.973Z,71.00
2017-07-30T12:53:54.292Z,70.90
2017-07-30T12:56:25.272Z,70.60
2017-07-30T12:58:56.385Z,70.10
2017-07-30T13:01:26.860Z,69.70
2017-07-30T13:03:58.035Z,69.90
2017-07-30T13:06:29.288Z,70.20
2017-07-30T13:09:00.670Z,70.40
2017-07-30T13:11:34.859Z,70.70
2017-07-30T13:14:08.197Z,70.60
2017-07-30T13:16:42.832Z,70.30
2017-07-30T13:19:13.151Z,70.40
2017-07-30T13:21:43.137Z,70.10
2017-07-30T13:24:13.275Z,70.20
2017-07-30T13:26:43.581Z,69.90
2017-07-30T13:29:13.372Z,70.00
2017-07-30T13:31:43.620Z,69.80
2017-07-30T13:34:14.790Z,69.90
2017-07-30T13:36:45.593Z,69.90
2017-07-30T13:39:16.807Z,69.60
2017-07-30T13:41:46.640Z,68.20
2017-07-30T13:44:17.566Z,67.20
2017-07-30T13:46:48.140Z,67.30
2017-07-30T13:49:18.269Z,67.80
2017-07-30T13:51:47.965Z,67.80
2017-07-30T13:54:18.910Z,68.60
2017-07-30T13:56:49.013Z,68.70
2017-07-30T13:59:19.619Z,68.20
2017-07-30T14:01:50.569Z,68.80
2017-07-30T14:04:20.689Z,69.30
2017-07-30T14:06:51.228Z,68.40
2017-07-30T14:09:22.247Z,68.20
2017-07-30T14:11:52.303Z,68.10
2017-07-30T14:14:23.447Z,68.50
2017-07-30T14:16:55.973Z,68.60
2017-07-30T14:19:26.820Z,68.60
2017-07-30T14:21:56.716Z,68.70
2017-07-30T14:24:28.157Z,69.20
2017-07-30T14:26:59.453Z,68.80
2017-07-30T14:29:30.483Z,69.10
2017-07-30T14:32:01.785Z,69.20
2017-07-30T14:34:33.136Z,70.10
2017-07-30T14:37:05.092Z,70.70
2017-07-30T14:39:35.580Z,71.00
2017-07-30T14:42:04.909Z,71.50
2017-07-30T14:44:35.868Z,71.90
2017-07-30T14:47:07.036Z,71.60
2017-07-30T14:49:38.633Z,71.60
2017-07-30T14:52:09.894Z,72.00
2017-07-30T14:54:41.200Z,71.70
2017-07-30T14:57:11.342Z,71.80
2017-07-30T14:59:41.653Z,71.60
2017-07-30T15:02:12.513Z,71.00
2017-07-30T15:04:44.429Z,71.70
2017-07-30T15:07:15.933Z,71.50
2017-07-30T15:09:47.364Z,71.50
2017-07-30T15:12:19.101Z,71.60
2017-07-30T15:14:50.324Z,71.50
2017-07-30T15:17:21.343Z,71.80
2017-07-30T15:19:51.813Z,71.40
2017-07-30T15:22:21.944Z,71.70
2017-07-30T15:24:54.119Z,72.20
2017-07-30T15:27:24.687Z,71.40
2017-07-30T15:29:55.312Z,71.60
2017-07-30T15:32:26.303Z,71.80
2017-07-30T15:34:57.079Z,72.10
2017-07-30T15:37:28.478Z,71.90
2017-07-30T15:39:58.828Z,71.40
2017-07-30T15:42:28.960Z,70.50
2017-07-30T15:45:00.460Z,70.20
2017-07-30T15:47:30.692Z,70.60
2017-07-30T15:50:00.583Z,70.20
2017-07-30T15:52:31.792Z,70.30
2017-07-30T15:55:01.748Z,70.30
2017-07-30T15:57:32.077Z,70.20
2017-07-30T16:00:01.126Z,70.50
2017-07-30T16:02:30.356Z,70.30
2017-07-30T16:05:00.050Z,70.30
2017-07-30T16:07:30.936Z,70.20
2017-07-30T16:10:03.387Z,69.90
2017-07-30T16:12:35.511Z,69.90
2017-07-30T16:15:09.071Z,69.60
2017-07-30T16:17:40.342Z,69.90
2017-07-30T16:20:12.339Z,70.10
2017-07-30T16:22:44.815Z,70.00
2017-07-30T16:25:16.196Z,69.80
2017-07-30T16:27:46.484Z,69.70
2017-07-30T16:30:23.705Z,69.60
2017-07-30T16:32:55.079Z,69.60
2017-07-30T16:35:27.204Z,69.90
2017-07-30T16:37:58.608Z,69.90
2017-07-30T16:40:29.982Z,69.90
2017-07-30T16:43:01.278Z,69.60
2017-07-30T16:45:32.800Z,69.90
2017-07-30T16:48:03.638Z,69.90
2017-07-30T16:50:34.923Z,70.00
2017-07-30T16:53:05.178Z,70.00
2017-07-30T16:55:36.547Z,69.40
2017-07-30T16:58:07.667Z,69.70
2017-07-30T17:00:39.594Z,69.60
2017-07-30T17:03:11.012Z,70.10
2017-07-30T17:05:42.192Z,69.50
2017-07-30T17:08:13.766Z,69.20
2017-07-30T17:10:44.501Z,69.20
2017-07-30T17:13:14.936Z,69.20
2017-07-30T17:15:46.076Z,68.80
2017-07-30T17:18:16.055Z,69.60
2017-07-30T17:20:46.551Z,69.40
2017-07-30T17:23:16.750Z,69.10
2017-07-30T17:25:46.330Z,68.40
2017-07-30T17:28:17.708Z,68.30
2017-07-30T17:30:48.240Z,68.40
2017-07-30T17:33:18.163Z,68.40
2017-07-30T17:35:47.969Z,68.20
2017-07-30T17:38:17.097Z,68.20
2017-07-30T17:40:46.042Z,67.90
2017-07-30T17:43:16.341Z,68.10
2017-07-30T17:45:45.676Z,67.80
2017-07-30T17:48:15.335Z,67.60
2017-07-30T17:50:44.491Z,67.30
2017-07-30T17:53:13.784Z,67.30
2017-07-30T17:55:43.868Z,67.00
2017-07-30T17:58:13.414Z,66.80
2017-07-30T18:00:44.207Z,67.00
2017-07-30T18:03:13.447Z,66.70
2017-07-30T18:05:43.978Z,67.20
2017-07-30T18:08:15.287Z,67.10
2017-07-30T18:10:45.035Z,67.20
2017-07-30T18:13:14.360Z,67.10
2017-07-30T18:15:43.611Z,66.90
2017-07-30T18:18:12.522Z,67.50
2017-07-30T18:20:41.612Z,67.80
2017-07-30T18:23:10.714Z,67.60
2017-07-30T18:25:40.542Z,67.60
2017-07-30T18:28:09.720Z,67.50
2017-07-30T18:30:38.815Z,67.40
2017-07-30T18:33:07.916Z,67.20
2017-07-30T18:35:38.240Z,67.30
2017-07-30T18:38:07.324Z,67.10
2017-07-30T18:40:36.428Z,66.70
2017-07-30T18:43:05.522Z,66.90
2017-07-30T18:45:34.628Z,66.80
2017-07-30T18:48:04.953Z,66.70
2017-07-30T18:50:35.015Z,66.70
2017-07-30T18:53:04.162Z,66.60
2017-07-30T18:55:33.254Z,66.40
2017-07-30T18:58:02.556Z,66.50
2017-07-30T19:00:32.588Z,66.50
2017-07-30T19:03:01.572Z,66.40
2017-07-30T19:05:30.662Z,66.60
2017-07-30T19:07:59.749Z,66.30
2017-07-30T19:10:29.028Z,66.30
2017-07-30T19:12:58.149Z,66.10
2017-07-30T19:15:27.045Z,65.90
2017-07-30T19:17:56.343Z,66.30
2017-07-30T19:20:25.240Z,66.10
2017-07-30T19:22:55.144Z,66.00
2017-07-30T19:25:24.246Z,66.10
2017-07-30T19:27:54.172Z,66.10
2017-07-30T19:30:24.278Z,65.80
2017-07-30T19:32:53.332Z,65.80
2017-07-30T19:35:22.275Z,66.10
2017-07-30T19:37:51.770Z,65.90
2017-07-30T19:40:29.847Z,65.50
2017-07-30T19:43:06.249Z,65.70
2017-07-30T19:45:35.028Z,65.70
2017-07-30T19:48:04.126Z,65.80
2017-07-30T19:50:33.629Z,65.90
2017-07-30T19:53:02.516Z,65.40
2017-07-30T19:55:31.410Z,65.60
2017-07-30T19:58:00.502Z,65.60
2017-07-30T20:00:29.397Z,65.80
2017-07-30T20:02:58.283Z,65.50
2017-07-30T20:05:28.340Z,65.50
2017-07-30T20:07:57.286Z,65.50
2017-07-30T20:10:28.028Z,65.60
2017-07-30T20:12:57.945Z,65.50
2017-07-30T20:15:27.037Z,65.80
2017-07-30T20:17:55.926Z,66.10
2017-07-30T20:20:24.820Z,65.60
2017-07-30T20:22:53.711Z,65.70
2017-07-30T20:25:22.609Z,65.90
2017-07-30T20:27:51.681Z,65.60
2017-07-30T20:30:20.945Z,65.90
2017-07-30T20:32:49.897Z,66.00
2017-07-30T20:35:19.740Z,66.50
2017-07-30T20:37:49.773Z,66.30
2017-07-30T20:40:18.612Z,66.20
2017-07-30T20:42:47.708Z,66.30
2017-07-30T20:45:17.620Z,66.00
2017-07-30T20:47:46.716Z,65.90
2017-07-30T20:50:16.636Z,65.90
2017-07-30T20:52:46.956Z,66.00
2017-07-30T20:55:15.957Z,65.70
2017-07-30T20:57:46.168Z,65.60
2017-07-30T21:00:15.197Z,65.60
2017-07-30T21:02:44.562Z,65.70
2017-07-30T21:05:13.453Z,65.70
2017-07-30T21:07:42.349Z,65.70
2017-07-30T21:10:11.233Z,65.60
2017-07-30T21:12:41.107Z,65.40
2017-07-30T21:15:10.244Z,66.20
2017-07-30T21:17:40.348Z,65.50
2017-07-30T21:20:09.252Z,65.30
2017-07-30T21:22:38.079Z,65.30
2017-07-30T21:25:07.853Z,65.30
2017-07-30T21:27:36.750Z,65.40
2017-07-30T21:30:06.301Z,65.50
2017-07-30T21:32:35.346Z,65.50
2017-07-30T21:35:04.240Z,65.50
2017-07-30T21:37:33.129Z,65.20
2017-07-30T21:40:02.022Z,65.30
2017-07-30T21:42:31.112Z,65.30
2017-07-30T21:45:00.224Z,65.30
2017-07-30T21:47:29.916Z,66.10
2017-07-30T21:49:58.811Z,65.10
2017-07-30T21:52:27.900Z,65.30
2017-07-30T21:54:57.000Z,65.40
2017-07-30T21:57:26.094Z,65.30
2017-07-30T21:59:54.985Z,65.50
2017-07-30T22:02:24.091Z,65.30
2017-07-30T22:04:52.975Z,65.30
2017-07-30T22:07:21.859Z,65.10
2017-07-30T22:09:50.757Z,65.30
2017-07-30T22:12:19.851Z,65.40
2017-07-30T22:14:48.939Z,65.10
2017-07-30T22:17:18.862Z,65.20
2017-07-30T22:19:48.156Z,65.20
2017-07-30T22:22:17.250Z,65.20
2017-07-30T22:24:46.346Z,65.20
2017-07-30T22:27:15.236Z,65.10
2017-07-30T22:29:44.541Z,65.20
2017-07-30T22:32:15.104Z,65.10
2017-07-30T22:34:43.957Z,65.10
2017-07-30T22:37:12.846Z,65.10
2017-07-30T22:39:42.354Z,64.80
2017-07-30T22:42:11.251Z,65.10
2017-07-30T22:44:40.957Z,65.00
2017-07-30T22:47:09.846Z,65.30
2017-07-30T22:49:38.735Z,65.00
2017-07-30T22:52:07.627Z,64.90
2017-07-30T22:54:36.308Z,65.00
2017-07-30T22:57:05.199Z,64.90
2017-07-30T22:59:33.993Z,64.80
2017-07-30T23:02:03.078Z,64.90
2017-07-30T23:04:32.792Z,65.00
2017-07-30T23:07:01.684Z,64.90
2017-07-30T23:09:30.639Z,65.00
2017-07-30T23:11:59.468Z,65.00
2017-07-30T23:14:28.716Z,64.90
2017-07-30T23:16:57.451Z,64.80
2017-07-30T23:19:26.142Z,64.90
2017-07-30T23:21:54.821Z,65.00
2017-07-30T23:24:23.508Z,64.80
2017-07-30T23:26:52.398Z,64.90
2017-07-30T23:29:21.290Z,64.90
2017-07-30T23:31:50.391Z,65.10
2017-07-30T23:34:19.276Z,65.00
2017-07-30T23:36:48.138Z,64.80
2017-07-30T23:39:16.855Z,65.10
2017-07-30T23:41:45.746Z,64.90
2017-07-30T23:44:14.429Z,65.10
2017-07-30T23:46:43.317Z,64.90
2017-07-30T23:49:12.213Z,64.90
2017-07-30T23:51:41.098Z,64.90
2017-07-30T23:54:09.995Z,65.10
2017-07-30T23:56:38.885Z,65.00
2017-07-30T23:59:07.756Z,64.80
